sensor_id;sensor_type;location;lat;lon;timestamp;temperature;humidity
62589;DHT22;58504;48.770;9.148;2024-01-07T00:02:07;20.20;51.90
62589;DHT22;58504;48.770;9.148;2024-01-07T00:04:35;20.10;51.90
62589;DHT22;58504;48.770;9.148;2024-01-07T00:07:03;20.10;51.90
62589;DHT22;58504;48.770;9.148;2024-01-07T00:09:30;20.10;52.00
62589;DHT22;58504;48.770;9.148;2024-01-07T00:11:57;20.00;52.00
62589;DHT22;58504;48.770;9.148;2024-01-07T00:14:23;20.00;52.00
62589;DHT22;58504;48.770;9.148;2024-01-07T00:16:50;20.00;52.10
62589;DHT22;58504;48.770;9.148;2024-01-07T00:19:17;19.90;52.00
62589;DHT22;58504;48.770;9.148;2024-01-07T00:21:45;19.90;52.10
62589;DHT22;58504;48.770;9.148;2024-01-07T00:24:12;19.90;52.10
62589;DHT22;58504;48.770;9.148;2024-01-07T00:26:38;19.90;52.10
62589;DHT22;58504;48.770;9.148;2024-01-07T00:29:05;19.80;52.10
62589;DHT22;58504;48.770;9.148;2024-01-07T00:31:32;19.80;52.10
62589;DHT22;58504;48.770;9.148;2024-01-07T00:33:59;19.80;52.20
62589;DHT22;58504;48.770;9.148;2024-01-07T00:36:25;19.70;52.10
62589;DHT22;58504;48.770;9.148;2024-01-07T00:38:53;19.70;52.20
62589;DHT22;58504;48.770;9.148;2024-01-07T00:41:20;19.70;52.80
62589;DHT22;58504;48.770;9.148;2024-01-07T00:43:47;19.70;52.30
62589;DHT22;58504;48.770;9.148;2024-01-07T00:46:14;19.60;52.30
62589;DHT22;58504;48.770;9.148;2024-01-07T00:48:41;19.60;52.30
62589;DHT22;58504;48.770;9.148;2024-01-07T00:51:07;19.60;52.30
62589;DHT22;58504;48.770;9.148;2024-01-07T00:53:34;19.60;52.40
62589;DHT22;58504;48.770;9.148;2024-01-07T00:56:02;19.60;52.40
62589;DHT22;58504;48.770;9.148;2024-01-07T00:58:29;19.50;52.40
62589;DHT22;58504;48.770;9.148;2024-01-07T01:00:56;19.50;52.40
62589;DHT22;58504;48.770;9.148;2024-01-07T01:03:23;19.50;52.50
62589;DHT22;58504;48.770;9.148;2024-01-07T01:05:49;19.50;52.60
62589;DHT22;58504;48.770;9.148;2024-01-07T01:08:16;19.40;52.50
62589;DHT22;58504;48.770;9.148;2024-01-07T01:10:43;19.40;52.60
62589;DHT22;58504;48.770;9.148;2024-01-07T01:13:12;19.40;52.60
62589;DHT22;58504;48.770;9.148;2024-01-07T01:15:39;19.40;52.70
62589;DHT22;58504;48.770;9.148;2024-01-07T01:18:06;19.40;52.60
62589;DHT22;58504;48.770;9.148;2024-01-07T01:20:32;19.40;52.70
62589;DHT22;58504;48.770;9.148;2024-01-07T01:22:59;19.40;52.80
62589;DHT22;58504;48.770;9.148;2024-01-07T01:25:26;19.30;52.70
62589;DHT22;58504;48.770;9.148;2024-01-07T01:27:53;19.30;52.70
62589;DHT22;58504;48.770;9.148;2024-01-07T01:30:21;19.30;52.80
62589;DHT22;58504;48.770;9.148;2024-01-07T01:32:48;19.30;52.90
62589;DHT22;58504;48.770;9.148;2024-01-07T01:35:15;19.30;52.90
62589;DHT22;58504;48.770;9.148;2024-01-07T01:37:41;19.30;53.00
62589;DHT22;58504;48.770;9.148;2024-01-07T01:40:09;19.20;52.90
62589;DHT22;58504;48.770;9.148;2024-01-07T01:42:36;19.20;52.90
62589;DHT22;58504;48.770;9.148;2024-01-07T01:45:03;19.20;52.90
62589;DHT22;58504;48.770;9.148;2024-01-07T01:47:31;19.20;52.90
62589;DHT22;58504;48.770;9.148;2024-01-07T01:49:58;19.20;53.00
62589;DHT22;58504;48.770;9.148;2024-01-07T01:52:25;19.20;53.00
62589;DHT22;58504;48.770;9.148;2024-01-07T01:54:53;19.20;53.10
62589;DHT22;58504;48.770;9.148;2024-01-07T01:57:21;19.10;53.00
62589;DHT22;58504;48.770;9.148;2024-01-07T01:59:49;19.10;53.10
62589;DHT22;58504;48.770;9.148;2024-01-07T02:02:16;19.10;53.10
62589;DHT22;58504;48.770;9.148;2024-01-07T02:04:44;19.10;53.10
62589;DHT22;58504;48.770;9.148;2024-01-07T02:07:11;19.10;53.10
62589;DHT22;58504;48.770;9.148;2024-01-07T02:09:37;19.10;53.10
62589;DHT22;58504;48.770;9.148;2024-01-07T02:12:06;19.10;53.20
62589;DHT22;58504;48.770;9.148;2024-01-07T02:14:37;19.00;53.20
62589;DHT22;58504;48.770;9.148;2024-01-07T02:17:04;19.00;53.20
62589;DHT22;58504;48.770;9.148;2024-01-07T02:19:30;19.00;53.20
62589;DHT22;58504;48.770;9.148;2024-01-07T02:21:58;19.00;53.30
62589;DHT22;58504;48.770;9.148;2024-01-07T02:24:27;19.00;53.30
62589;DHT22;58504;48.770;9.148;2024-01-07T02:26:53;19.00;53.30
62589;DHT22;58504;48.770;9.148;2024-01-07T02:29:20;19.00;53.20
62589;DHT22;58504;48.770;9.148;2024-01-07T02:31:47;19.00;53.30
62589;DHT22;58504;48.770;9.148;2024-01-07T02:34:13;18.90;53.20
62589;DHT22;58504;48.770;9.148;2024-01-07T02:36:40;18.90;53.20
62589;DHT22;58504;48.770;9.148;2024-01-07T02:39:07;18.90;53.20
62589;DHT22;58504;48.770;9.148;2024-01-07T02:41:35;18.90;53.20
62589;DHT22;58504;48.770;9.148;2024-01-07T02:44:02;18.90;53.30
62589;DHT22;58504;48.770;9.148;2024-01-07T02:46:29;18.90;53.30
62589;DHT22;58504;48.770;9.148;2024-01-07T02:48:56;18.90;53.30
62589;DHT22;58504;48.770;9.148;2024-01-07T02:51:23;18.90;53.30
62589;DHT22;58504;48.770;9.148;2024-01-07T02:53:50;18.90;53.30
62589;DHT22;58504;48.770;9.148;2024-01-07T02:56:16;18.80;53.30
62589;DHT22;58504;48.770;9.148;2024-01-07T02:58:44;18.80;53.30
62589;DHT22;58504;48.770;9.148;2024-01-07T03:01:11;18.80;53.30
62589;DHT22;58504;48.770;9.148;2024-01-07T03:03:38;18.80;53.40
62589;DHT22;58504;48.770;9.148;2024-01-07T03:06:05;18.80;53.40
62589;DHT22;58504;48.770;9.148;2024-01-07T03:08:31;18.80;53.40
62589;DHT22;58504;48.770;9.148;2024-01-07T03:10:58;18.80;53.40
62589;DHT22;58504;48.770;9.148;2024-01-07T03:13:30;18.80;53.50
62589;DHT22;58504;48.770;9.148;2024-01-07T03:15:58;18.80;53.50
62589;DHT22;58504;48.770;9.148;2024-01-07T03:18:25;18.80;53.50
62589;DHT22;58504;48.770;9.148;2024-01-07T03:20:52;18.90;53.20
62589;DHT22;58504;48.770;9.148;2024-01-07T03:23:19;19.10;53.00
62589;DHT22;58504;48.770;9.148;2024-01-07T03:25:46;19.20;52.90
62589;DHT22;58504;48.770;9.148;2024-01-07T03:28:13;19.40;52.70
62589;DHT22;58504;48.770;9.148;2024-01-07T03:30:39;19.50;52.60
62589;DHT22;58504;48.770;9.148;2024-01-07T03:33:07;19.60;52.40
62589;DHT22;58504;48.770;9.148;2024-01-07T03:35:34;19.70;52.30
62589;DHT22;58504;48.770;9.148;2024-01-07T03:38:01;19.70;52.10
62589;DHT22;58504;48.770;9.148;2024-01-07T03:40:27;19.80;52.00
62589;DHT22;58504;48.770;9.148;2024-01-07T03:42:54;19.80;51.90
62589;DHT22;58504;48.770;9.148;2024-01-07T03:45:21;19.90;51.90
62589;DHT22;58504;48.770;9.148;2024-01-07T03:47:48;19.90;51.80
62589;DHT22;58504;48.770;9.148;2024-01-07T03:50:16;19.90;51.70
62589;DHT22;58504;48.770;9.148;2024-01-07T03:52:42;19.90;51.60
62589;DHT22;58504;48.770;9.148;2024-01-07T03:55:09;20.00;51.60
62589;DHT22;58504;48.770;9.148;2024-01-07T03:57:36;20.00;51.50
62589;DHT22;58504;48.770;9.148;2024-01-07T04:00:04;20.00;51.40
62589;DHT22;58504;48.770;9.148;2024-01-07T04:02:30;20.10;51.40
62589;DHT22;58504;48.770;9.148;2024-01-07T04:04:57;20.10;51.40
62589;DHT22;58504;48.770;9.148;2024-01-07T04:07:25;20.10;51.30
62589;DHT22;58504;48.770;9.148;2024-01-07T04:09:52;20.10;51.30
62589;DHT22;58504;48.770;9.148;2024-01-07T04:12:19;20.10;51.20
62589;DHT22;58504;48.770;9.148;2024-01-07T04:14:45;20.20;51.30
62589;DHT22;58504;48.770;9.148;2024-01-07T04:17:12;20.20;51.20
62589;DHT22;58504;48.770;9.148;2024-01-07T04:19:39;20.20;51.20
62589;DHT22;58504;48.770;9.148;2024-01-07T04:22:06;20.20;51.10
62589;DHT22;58504;48.770;9.148;2024-01-07T04:24:34;20.20;51.10
62589;DHT22;58504;48.770;9.148;2024-01-07T04:27:00;20.30;51.10
62589;DHT22;58504;48.770;9.148;2024-01-07T04:29:27;20.30;51.10
62589;DHT22;58504;48.770;9.148;2024-01-07T04:31:54;20.30;51.10
62589;DHT22;58504;48.770;9.148;2024-01-07T04:34:20;20.30;51.00
62589;DHT22;58504;48.770;9.148;2024-01-07T04:36:48;20.30;50.90
62589;DHT22;58504;48.770;9.148;2024-01-07T04:39:14;20.30;50.90
62589;DHT22;58504;48.770;9.148;2024-01-07T04:41:42;20.30;50.90
62589;DHT22;58504;48.770;9.148;2024-01-07T04:44:09;20.40;50.90
62589;DHT22;58504;48.770;9.148;2024-01-07T04:46:38;20.40;50.90
62589;DHT22;58504;48.770;9.148;2024-01-07T04:49:05;20.40;50.80
62589;DHT22;58504;48.770;9.148;2024-01-07T04:51:32;20.40;50.80
62589;DHT22;58504;48.770;9.148;2024-01-07T04:53:59;20.40;50.80
62589;DHT22;58504;48.770;9.148;2024-01-07T04:56:26;20.40;50.80
62589;DHT22;58504;48.770;9.148;2024-01-07T04:58:54;20.40;51.30
62589;DHT22;58504;48.770;9.148;2024-01-07T05:01:21;20.40;50.80
62589;DHT22;58504;48.770;9.148;2024-01-07T05:03:48;20.40;50.80
62589;DHT22;58504;48.770;9.148;2024-01-07T05:06:14;20.50;50.80
62589;DHT22;58504;48.770;9.148;2024-01-07T05:08:41;20.50;50.70
62589;DHT22;58504;48.770;9.148;2024-01-07T05:11:08;20.50;50.70
62589;DHT22;58504;48.770;9.148;2024-01-07T05:13:36;20.50;50.70
62589;DHT22;58504;48.770;9.148;2024-01-07T05:16:05;20.50;50.70
62589;DHT22;58504;48.770;9.148;2024-01-07T05:18:32;20.50;50.70
62589;DHT22;58504;48.770;9.148;2024-01-07T05:20:59;20.50;50.60
62589;DHT22;58504;48.770;9.148;2024-01-07T05:23:25;20.50;50.60
62589;DHT22;58504;48.770;9.148;2024-01-07T05:25:52;20.50;50.60
62589;DHT22;58504;48.770;9.148;2024-01-07T05:28:19;20.50;50.60
62589;DHT22;58504;48.770;9.148;2024-01-07T05:30:46;20.50;50.60
62589;DHT22;58504;48.770;9.148;2024-01-07T05:33:14;20.50;50.60
62589;DHT22;58504;48.770;9.148;2024-01-07T05:35:41;20.50;50.50
62589;DHT22;58504;48.770;9.148;2024-01-07T05:38:08;20.60;50.60
62589;DHT22;58504;48.770;9.148;2024-01-07T05:40:34;20.50;50.50
62589;DHT22;58504;48.770;9.148;2024-01-07T05:43:01;20.50;50.50
62589;DHT22;58504;48.770;9.148;2024-01-07T05:45:28;20.50;50.50
62589;DHT22;58504;48.770;9.148;2024-01-07T05:47:54;20.50;50.50
62589;DHT22;58504;48.770;9.148;2024-01-07T05:50:22;20.50;50.50
62589;DHT22;58504;48.770;9.148;2024-01-07T05:52:49;20.50;50.50
62589;DHT22;58504;48.770;9.148;2024-01-07T05:55:16;20.50;50.50
62589;DHT22;58504;48.770;9.148;2024-01-07T05:57:43;20.60;50.50
62589;DHT22;58504;48.770;9.148;2024-01-07T06:00:11;20.60;50.50
62589;DHT22;58504;48.770;9.148;2024-01-07T06:02:38;20.60;50.50
62589;DHT22;58504;48.770;9.148;2024-01-07T06:05:06;20.60;50.50
62589;DHT22;58504;48.770;9.148;2024-01-07T06:07:34;20.60;50.50
62589;DHT22;58504;48.770;9.148;2024-01-07T06:10:00;20.60;50.50
62589;DHT22;58504;48.770;9.148;2024-01-07T06:12:27;20.60;50.50
62589;DHT22;58504;48.770;9.148;2024-01-07T06:14:54;20.60;50.50
62589;DHT22;58504;48.770;9.148;2024-01-07T06:17:21;20.60;50.50
62589;DHT22;58504;48.770;9.148;2024-01-07T06:19:48;20.60;50.50
62589;DHT22;58504;48.770;9.148;2024-01-07T06:22:14;20.60;50.50
62589;DHT22;58504;48.770;9.148;2024-01-07T06:24:43;20.60;50.50
62589;DHT22;58504;48.770;9.148;2024-01-07T06:27:09;20.60;50.40
62589;DHT22;58504;48.770;9.148;2024-01-07T06:29:36;20.60;50.40
62589;DHT22;58504;48.770;9.148;2024-01-07T06:32:03;20.60;50.40
62589;DHT22;58504;48.770;9.148;2024-01-07T06:34:30;20.60;50.40
62589;DHT22;58504;48.770;9.148;2024-01-07T06:36:58;20.60;50.30
62589;DHT22;58504;48.770;9.148;2024-01-07T06:39:25;20.60;50.30
62589;DHT22;58504;48.770;9.148;2024-01-07T06:41:53;20.60;50.40
62589;DHT22;58504;48.770;9.148;2024-01-07T06:44:20;20.60;50.30
62589;DHT22;58504;48.770;9.148;2024-01-07T06:46:47;20.60;50.30
62589;DHT22;58504;48.770;9.148;2024-01-07T06:49:14;20.60;50.30
62589;DHT22;58504;48.770;9.148;2024-01-07T06:51:41;20.60;50.80
62589;DHT22;58504;48.770;9.148;2024-01-07T06:54:07;20.60;50.30
62589;DHT22;58504;48.770;9.148;2024-01-07T06:56:34;20.60;50.30
62589;DHT22;58504;48.770;9.148;2024-01-07T06:59:02;20.60;50.30
62589;DHT22;58504;48.770;9.148;2024-01-07T07:01:29;20.70;50.30
62589;DHT22;58504;48.770;9.148;2024-01-07T07:03:56;20.60;50.20
62589;DHT22;58504;48.770;9.148;2024-01-07T07:06:23;20.70;50.30
62589;DHT22;58504;48.770;9.148;2024-01-07T07:08:49;20.70;50.30
62589;DHT22;58504;48.770;9.148;2024-01-07T07:11:16;20.70;50.30
62589;DHT22;58504;48.770;9.148;2024-01-07T07:13:43;20.70;50.30
62589;DHT22;58504;48.770;9.148;2024-01-07T07:16:11;20.70;50.30
62589;DHT22;58504;48.770;9.148;2024-01-07T07:18:38;20.70;50.30
62589;DHT22;58504;48.770;9.148;2024-01-07T07:21:05;20.70;50.30
62589;DHT22;58504;48.770;9.148;2024-01-07T07:23:32;20.70;50.20
62589;DHT22;58504;48.770;9.148;2024-01-07T07:25:58;20.70;50.30
62589;DHT22;58504;48.770;9.148;2024-01-07T07:28:25;20.70;50.30
62589;DHT22;58504;48.770;9.148;2024-01-07T07:30:52;20.70;50.20
62589;DHT22;58504;48.770;9.148;2024-01-07T07:33:20;20.70;50.20
62589;DHT22;58504;48.770;9.148;2024-01-07T07:35:47;20.70;50.20
62589;DHT22;58504;48.770;9.148;2024-01-07T07:38:14;20.70;50.20
62589;DHT22;58504;48.770;9.148;2024-01-07T07:40:40;20.70;50.20
62589;DHT22;58504;48.770;9.148;2024-01-07T07:43:08;20.70;50.20
62589;DHT22;58504;48.770;9.148;2024-01-07T07:45:35;20.70;50.20
62589;DHT22;58504;48.770;9.148;2024-01-07T07:48:02;20.70;50.20
62589;DHT22;58504;48.770;9.148;2024-01-07T07:50:30;20.70;50.20
62589;DHT22;58504;48.770;9.148;2024-01-07T07:52:57;20.70;50.20
62589;DHT22;58504;48.770;9.148;2024-01-07T07:55:23;20.70;50.20
62589;DHT22;58504;48.770;9.148;2024-01-07T07:57:50;20.70;50.20
62589;DHT22;58504;48.770;9.148;2024-01-07T08:00:17;20.70;50.20
62589;DHT22;58504;48.770;9.148;2024-01-07T08:02:44;20.70;50.10
62589;DHT22;58504;48.770;9.148;2024-01-07T08:05:11;20.70;50.10
62589;DHT22;58504;48.770;9.148;2024-01-07T08:07:39;20.70;50.10
62589;DHT22;58504;48.770;9.148;2024-01-07T08:10:07;20.70;50.20
62589;DHT22;58504;48.770;9.148;2024-01-07T08:12:34;20.70;50.20
62589;DHT22;58504;48.770;9.148;2024-01-07T08:15:01;20.70;50.20
62589;DHT22;58504;48.770;9.148;2024-01-07T08:17:28;20.70;50.20
62589;DHT22;58504;48.770;9.148;2024-01-07T08:19:55;20.70;50.20
62589;DHT22;58504;48.770;9.148;2024-01-07T08:22:22;20.70;50.10
62589;DHT22;58504;48.770;9.148;2024-01-07T08:24:50;20.70;50.10
62589;DHT22;58504;48.770;9.148;2024-01-07T08:27:17;20.70;50.10
62589;DHT22;58504;48.770;9.148;2024-01-07T08:29:44;20.70;50.10
62589;DHT22;58504;48.770;9.148;2024-01-07T08:32:10;20.70;50.10
62589;DHT22;58504;48.770;9.148;2024-01-07T08:34:37;20.70;50.10
62589;DHT22;58504;48.770;9.148;2024-01-07T08:37:05;20.70;50.10
62589;DHT22;58504;48.770;9.148;2024-01-07T08:39:31;20.70;50.70
62589;DHT22;58504;48.770;9.148;2024-01-07T08:41:59;20.70;50.10
62589;DHT22;58504;48.770;9.148;2024-01-07T08:44:26;20.70;50.10
62589;DHT22;58504;48.770;9.148;2024-01-07T08:46:53;20.70;50.00
62589;DHT22;58504;48.770;9.148;2024-01-07T08:49:20;20.70;50.10
62589;DHT22;58504;48.770;9.148;2024-01-07T08:51:46;20.70;50.10
62589;DHT22;58504;48.770;9.148;2024-01-07T08:54:13;20.70;50.10
62589;DHT22;58504;48.770;9.148;2024-01-07T08:56:40;20.70;50.10
62589;DHT22;58504;48.770;9.148;2024-01-07T08:59:08;20.70;50.10
62589;DHT22;58504;48.770;9.148;2024-01-07T09:01:36;20.70;50.00
62589;DHT22;58504;48.770;9.148;2024-01-07T09:04:03;20.70;50.00
62589;DHT22;58504;48.770;9.148;2024-01-07T09:06:29;20.70;50.00
62589;DHT22;58504;48.770;9.148;2024-01-07T09:08:57;20.70;50.00
62589;DHT22;58504;48.770;9.148;2024-01-07T09:11:24;20.70;50.00
62589;DHT22;58504;48.770;9.148;2024-01-07T09:13:51;20.70;50.00
62589;DHT22;58504;48.770;9.148;2024-01-07T09:16:19;20.70;50.00
62589;DHT22;58504;48.770;9.148;2024-01-07T09:18:46;20.70;49.90
62589;DHT22;58504;48.770;9.148;2024-01-07T09:21:13;20.80;50.00
62589;DHT22;58504;48.770;9.148;2024-01-07T09:23:40;20.80;50.60
62589;DHT22;58504;48.770;9.148;2024-01-07T09:26:08;20.70;49.90
62589;DHT22;58504;48.770;9.148;2024-01-07T09:28:34;20.80;49.90
62589;DHT22;58504;48.770;9.148;2024-01-07T09:31:01;20.80;49.90
62589;DHT22;58504;48.770;9.148;2024-01-07T09:33:29;20.80;49.90
62589;DHT22;58504;48.770;9.148;2024-01-07T09:35:56;20.80;49.80
62589;DHT22;58504;48.770;9.148;2024-01-07T09:38:23;20.80;49.80
62589;DHT22;58504;48.770;9.148;2024-01-07T09:40:51;20.80;49.80
62589;DHT22;58504;48.770;9.148;2024-01-07T09:43:18;20.80;49.80
62589;DHT22;58504;48.770;9.148;2024-01-07T09:45:46;20.80;49.70
62589;DHT22;58504;48.770;9.148;2024-01-07T09:48:13;20.80;49.70
62589;DHT22;58504;48.770;9.148;2024-01-07T09:50:42;20.80;49.70
62589;DHT22;58504;48.770;9.148;2024-01-07T09:53:13;20.80;49.60
62589;DHT22;58504;48.770;9.148;2024-01-07T09:55:47;20.80;49.60
62589;DHT22;58504;48.770;9.148;2024-01-07T09:58:16;20.90;49.70
62589;DHT22;58504;48.770;9.148;2024-01-07T10:00:43;20.90;49.70
62589;DHT22;58504;48.770;9.148;2024-01-07T10:03:10;20.90;49.70
62589;DHT22;58504;48.770;9.148;2024-01-07T10:05:36;20.90;49.70
62589;DHT22;58504;48.770;9.148;2024-01-07T10:08:05;20.80;49.60
62589;DHT22;58504;48.770;9.148;2024-01-07T10:10:35;20.90;49.70
62589;DHT22;58504;48.770;9.148;2024-01-07T10:13:02;20.80;49.50
62589;DHT22;58504;48.770;9.148;2024-01-07T10:15:29;20.80;49.50
62589;DHT22;58504;48.770;9.148;2024-01-07T10:18:02;20.80;49.50
62589;DHT22;58504;48.770;9.148;2024-01-07T10:20:31;20.80;49.60
62589;DHT22;58504;48.770;9.148;2024-01-07T10:22:58;20.80;49.70
62589;DHT22;58504;48.770;9.148;2024-01-07T10:25:26;20.80;49.60
62589;DHT22;58504;48.770;9.148;2024-01-07T10:27:53;20.80;49.70
62589;DHT22;58504;48.770;9.148;2024-01-07T10:30:20;20.80;49.70
62589;DHT22;58504;48.770;9.148;2024-01-07T10:32:47;20.80;49.70
62589;DHT22;58504;48.770;9.148;2024-01-07T10:35:14;20.80;49.70
62589;DHT22;58504;48.770;9.148;2024-01-07T10:37:43;20.80;49.70
62589;DHT22;58504;48.770;9.148;2024-01-07T10:40:12;20.80;49.70
62589;DHT22;58504;48.770;9.148;2024-01-07T10:42:40;20.80;49.70
62589;DHT22;58504;48.770;9.148;2024-01-07T10:45:09;20.80;49.70
62589;DHT22;58504;48.770;9.148;2024-01-07T10:47:36;20.80;49.70
62589;DHT22;58504;48.770;9.148;2024-01-07T10:50:05;20.80;49.60
62589;DHT22;58504;48.770;9.148;2024-01-07T10:52:36;20.80;49.60
62589;DHT22;58504;48.770;9.148;2024-01-07T10:55:09;20.80;49.60
62589;DHT22;58504;48.770;9.148;2024-01-07T10:57:44;20.80;49.60
62589;DHT22;58504;48.770;9.148;2024-01-07T11:00:13;20.80;49.60
62589;DHT22;58504;48.770;9.148;2024-01-07T11:03:08;20.80;49.60
62589;DHT22;58504;48.770;9.148;2024-01-07T11:05:40;20.80;49.60
62589;DHT22;58504;48.770;9.148;2024-01-07T11:08:15;20.80;49.60
62589;DHT22;58504;48.770;9.148;2024-01-07T11:10:48;20.80;50.10
62589;DHT22;58504;48.770;9.148;2024-01-07T11:16:12;20.80;49.60
62589;DHT22;58504;48.770;9.148;2024-01-07T11:18:39;20.80;49.60
62589;DHT22;58504;48.770;9.148;2024-01-07T11:21:06;20.80;49.70
62589;DHT22;58504;48.770;9.148;2024-01-07T11:23:34;20.80;49.60
62589;DHT22;58504;48.770;9.148;2024-01-07T11:26:03;20.80;49.60
62589;DHT22;58504;48.770;9.148;2024-01-07T11:28:46;20.80;49.70
62589;DHT22;58504;48.770;9.148;2024-01-07T11:31:15;20.80;49.70
62589;DHT22;58504;48.770;9.148;2024-01-07T11:33:43;20.80;49.70
62589;DHT22;58504;48.770;9.148;2024-01-07T11:36:11;20.80;49.70
62589;DHT22;58504;48.770;9.148;2024-01-07T11:38:41;20.80;49.70
62589;DHT22;58504;48.770;9.148;2024-01-07T11:41:09;20.80;49.70
62589;DHT22;58504;48.770;9.148;2024-01-07T11:43:37;20.80;49.70
62589;DHT22;58504;48.770;9.148;2024-01-07T11:46:04;20.80;49.90
62589;DHT22;58504;48.770;9.148;2024-01-07T11:48:32;20.80;49.70
62589;DHT22;58504;48.770;9.148;2024-01-07T11:50:59;20.80;49.70
62589;DHT22;58504;48.770;9.148;2024-01-07T11:53:26;20.80;49.70
62589;DHT22;58504;48.770;9.148;2024-01-07T11:55:53;20.80;49.70
62589;DHT22;58504;48.770;9.148;2024-01-07T11:58:20;20.80;49.70
62589;DHT22;58504;48.770;9.148;2024-01-07T12:00:47;20.80;49.70
62589;DHT22;58504;48.770;9.148;2024-01-07T12:03:15;20.80;49.70
62589;DHT22;58504;48.770;9.148;2024-01-07T12:05:43;20.80;49.70
62589;DHT22;58504;48.770;9.148;2024-01-07T12:08:11;20.80;49.70
62589;DHT22;58504;48.770;9.148;2024-01-07T12:10:37;20.80;49.70
62589;DHT22;58504;48.770;9.148;2024-01-07T12:13:04;20.80;49.70
62589;DHT22;58504;48.770;9.148;2024-01-07T12:15:32;20.80;49.70
62589;DHT22;58504;48.770;9.148;2024-01-07T12:17:59;20.80;49.70
62589;DHT22;58504;48.770;9.148;2024-01-07T12:20:27;20.80;49.70
62589;DHT22;58504;48.770;9.148;2024-01-07T12:22:57;20.80;49.70
62589;DHT22;58504;48.770;9.148;2024-01-07T12:25:24;20.80;49.70
62589;DHT22;58504;48.770;9.148;2024-01-07T12:27:51;20.70;49.60
62589;DHT22;58504;48.770;9.148;2024-01-07T12:30:20;20.80;49.60
62589;DHT22;58504;48.770;9.148;2024-01-07T12:32:47;20.70;49.60
62589;DHT22;58504;48.770;9.148;2024-01-07T12:35:13;20.80;49.70
62589;DHT22;58504;48.770;9.148;2024-01-07T12:37:41;20.80;49.60
62589;DHT22;58504;48.770;9.148;2024-01-07T12:40:10;20.70;49.60
62589;DHT22;58504;48.770;9.148;2024-01-07T12:42:37;20.70;49.60
62589;DHT22;58504;48.770;9.148;2024-01-07T12:45:10;20.70;49.60
62589;DHT22;58504;48.770;9.148;2024-01-07T12:47:37;20.70;49.60
62589;DHT22;58504;48.770;9.148;2024-01-07T12:50:04;20.70;49.60
62589;DHT22;58504;48.770;9.148;2024-01-07T12:52:31;20.70;49.70
62589;DHT22;58504;48.770;9.148;2024-01-07T12:54:58;20.70;49.60
62589;DHT22;58504;48.770;9.148;2024-01-07T12:57:26;20.70;49.60
62589;DHT22;58504;48.770;9.148;2024-01-07T12:59:52;20.70;49.70
62589;DHT22;58504;48.770;9.148;2024-01-07T13:02:19;20.70;49.60
62589;DHT22;58504;48.770;9.148;2024-01-07T13:04:46;20.70;49.60
62589;DHT22;58504;48.770;9.148;2024-01-07T13:07:13;20.70;49.60
62589;DHT22;58504;48.770;9.148;2024-01-07T13:09:40;20.70;49.60
62589;DHT22;58504;48.770;9.148;2024-01-07T13:12:07;20.70;49.60
62589;DHT22;58504;48.770;9.148;2024-01-07T13:14:35;20.70;50.20
62589;DHT22;58504;48.770;9.148;2024-01-07T13:17:02;20.70;49.60
62589;DHT22;58504;48.770;9.148;2024-01-07T13:19:29;20.70;49.60
62589;DHT22;58504;48.770;9.148;2024-01-07T13:21:56;20.70;49.60
62589;DHT22;58504;48.770;9.148;2024-01-07T13:24:23;20.70;49.60
62589;DHT22;58504;48.770;9.148;2024-01-07T13:26:50;20.70;49.60
62589;DHT22;58504;48.770;9.148;2024-01-07T13:29:17;20.70;49.60
62589;DHT22;58504;48.770;9.148;2024-01-07T13:31:45;20.70;49.60
62589;DHT22;58504;48.770;9.148;2024-01-07T13:34:12;20.70;49.70
62589;DHT22;58504;48.770;9.148;2024-01-07T13:36:40;20.70;49.70
62589;DHT22;58504;48.770;9.148;2024-01-07T13:39:07;20.70;49.70
62589;DHT22;58504;48.770;9.148;2024-01-07T13:41:34;20.70;49.70
62589;DHT22;58504;48.770;9.148;2024-01-07T13:44:01;20.70;49.70
62589;DHT22;58504;48.770;9.148;2024-01-07T13:46:29;20.70;49.60
62589;DHT22;58504;48.770;9.148;2024-01-07T13:48:57;20.70;49.70
62589;DHT22;58504;48.770;9.148;2024-01-07T13:51:25;20.70;49.70
62589;DHT22;58504;48.770;9.148;2024-01-07T13:53:52;20.70;49.70
62589;DHT22;58504;48.770;9.148;2024-01-07T13:56:18;20.70;49.70
62589;DHT22;58504;48.770;9.148;2024-01-07T13:58:45;20.70;49.70
62589;DHT22;58504;48.770;9.148;2024-01-07T14:01:12;20.70;49.70
62589;DHT22;58504;48.770;9.148;2024-01-07T14:03:39;20.70;49.70
62589;DHT22;58504;48.770;9.148;2024-01-07T14:06:09;20.70;49.70
62589;DHT22;58504;48.770;9.148;2024-01-07T14:08:36;20.70;49.70
62589;DHT22;58504;48.770;9.148;2024-01-07T14:11:03;20.60;49.60
62589;DHT22;58504;48.770;9.148;2024-01-07T14:13:32;20.70;49.70
62589;DHT22;58504;48.770;9.148;2024-01-07T14:15:59;20.70;49.70
62589;DHT22;58504;48.770;9.148;2024-01-07T14:18:27;20.60;49.60
62589;DHT22;58504;48.770;9.148;2024-01-07T14:20:53;20.70;49.70
62589;DHT22;58504;48.770;9.148;2024-01-07T14:23:21;20.70;49.70
62589;DHT22;58504;48.770;9.148;2024-01-07T14:25:48;20.70;49.70
62589;DHT22;58504;48.770;9.148;2024-01-07T14:28:15;20.60;49.60
62589;DHT22;58504;48.770;9.148;2024-01-07T14:30:42;20.60;49.60
62589;DHT22;58504;48.770;9.148;2024-01-07T14:33:09;20.60;49.70
62589;DHT22;58504;48.770;9.148;2024-01-07T14:35:36;20.60;49.80
62589;DHT22;58504;48.770;9.148;2024-01-07T14:38:03;20.50;49.80
62589;DHT22;58504;48.770;9.148;2024-01-07T14:40:31;20.50;49.80
62589;DHT22;58504;48.770;9.148;2024-01-07T14:42:58;20.50;49.80
62589;DHT22;58504;48.770;9.148;2024-01-07T14:45:26;20.50;49.80
62589;DHT22;58504;48.770;9.148;2024-01-07T14:47:54;20.50;49.80
62589;DHT22;58504;48.770;9.148;2024-01-07T14:50:21;20.50;49.80
62589;DHT22;58504;48.770;9.148;2024-01-07T14:52:47;20.50;49.70
62589;DHT22;58504;48.770;9.148;2024-01-07T14:55:15;20.50;49.70
62589;DHT22;58504;48.770;9.148;2024-01-07T14:57:43;20.50;49.70
62589;DHT22;58504;48.770;9.148;2024-01-07T15:00:10;20.50;49.70
62589;DHT22;58504;48.770;9.148;2024-01-07T15:02:37;20.50;49.70
62589;DHT22;58504;48.770;9.148;2024-01-07T15:05:05;20.50;49.60
62589;DHT22;58504;48.770;9.148;2024-01-07T15:07:32;20.60;49.80
62589;DHT22;58504;48.770;9.148;2024-01-07T15:09:59;20.50;49.70
62589;DHT22;58504;48.770;9.148;2024-01-07T15:12:25;20.60;49.70
62589;DHT22;58504;48.770;9.148;2024-01-07T15:15:02;20.50;49.70
62589;DHT22;58504;48.770;9.148;2024-01-07T15:17:31;20.50;49.60
62589;DHT22;58504;48.770;9.148;2024-01-07T15:19:58;20.50;49.60
62589;DHT22;58504;48.770;9.148;2024-01-07T15:22:24;20.50;49.60
62589;DHT22;58504;48.770;9.148;2024-01-07T15:24:51;20.60;49.70
62589;DHT22;58504;48.770;9.148;2024-01-07T15:27:19;20.50;49.60
62589;DHT22;58504;48.770;9.148;2024-01-07T15:29:45;20.50;49.60
62589;DHT22;58504;48.770;9.148;2024-01-07T15:32:14;20.60;49.70
62589;DHT22;58504;48.770;9.148;2024-01-07T15:34:41;20.50;49.60